Time;durP1;ratioP1;P1;durP2;ratioP2;P2;SDS_P1;SDS_P2;PMS_P1;PMS_P2;Temp;Humidity;BMP_temperature;BMP_pressure;BME280_temperature;BME280_humidity;BME280_pressure;Samples;Min_cycle;Max_cycle;Signal;HPM_P1;HPM_P2
2021/03/23 00:01:04;;;;;;;18.52;16.45;;;;;;;8.31;58.45;101059.38;10353038;28;20046;-72
2021/03/23 00:06:09;;;;;;;23.73;16.40;;;;;;;8.28;58.22;101054.25;10352573;28;20753;-72
2021/03/23 00:11:22;;;;;;;22.02;15.27;;;;;;;8.42;57.81;101062.28;10354522;28;20588;-72
2021/03/23 00:16:28;;;;;;;20.10;17.10;;;;;;;8.25;57.91;101049.13;10351246;28;20698;-72
2021/03/23 00:21:30;;;;;;;20.10;15.25;;;;;;;8.36;58.19;101061.75;10351364;28;20072;-72
2021/03/23 00:26:31;;;;;;;18.33;15.43;;;;;;;8.19;58.50;101060.94;10353713;28;20128;-72
2021/03/23 00:31:33;;;;;;;20.95;16.83;;;;;;;8.27;58.39;101057.84;10353896;28;20070;-72
2021/03/23 00:36:38;;;;;;;19.65;16.98;;;;;;;8.32;57.95;101055.78;10352064;28;20053;-72
2021/03/23 00:41:42;;;;;;;18.95;15.35;;;;;;;8.24;58.37;101055.38;10345112;28;20137;-72
2021/03/23 00:46:43;;;;;;;22.23;16.90;;;;;;;8.32;57.93;101061.09;10351876;28;20049;-72
2021/03/23 00:51:45;;;;;;;18.98;16.38;;;;;;;8.31;58.23;101059.38;10354135;28;20429;-71
2021/03/23 00:56:45;;;;;;;19.42;16.55;;;;;;;8.40;57.75;101064.13;10352761;28;20061;-72
2021/03/23 01:01:46;;;;;;;17.55;15.13;;;;;;;8.37;57.84;101059.00;10354942;28;20058;-72
2021/03/23 01:06:55;;;;;;;20.77;17.52;;;;;;;8.32;57.75;101051.31;10355949;28;20054;-71
2021/03/23 01:11:56;;;;;;;21.00;17.65;;;;;;;8.33;57.83;101052.16;10357521;28;20045;-71
2021/03/23 01:16:57;;;;;;;23.25;15.93;;;;;;;8.37;57.88;101058.16;10353336;28;20069;-71
2021/03/23 01:21:59;;;;;;;21.05;16.77;;;;;;;8.45;57.26;101054.16;10354747;28;20050;-71
2021/03/23 01:27:09;;;;;;;18.52;15.20;;;;;;;8.13;57.96;101043.56;10355138;28;20052;-72
2021/03/23 01:32:10;;;;;;;19.45;16.55;;;;;;;8.00;58.84;101042.59;10354828;28;20392;-71
2021/03/23 01:37:18;;;;;;;17.92;16.05;;;;;;;8.21;58.23;101052.88;10396894;28;20060;-72
2021/03/23 01:42:20;;;;;;;18.38;15.88;;;;;;;7.97;58.58;101061.31;10380334;28;20041;-72
2021/03/23 01:47:21;;;;;;;20.38;15.52;;;;;;;8.19;57.71;101049.47;10352197;28;20115;-71
2021/03/23 01:52:23;;;;;;;20.85;16.27;;;;;;;8.29;57.70;101055.97;10349189;28;20125;-71
2021/03/23 01:57:24;;;;;;;20.55;16.35;;;;;;;8.07;57.79;101041.28;10349522;28;20141;-72
2021/03/23 02:02:29;;;;;;;21.23;16.33;;;;;;;7.72;58.64;101046.78;10348822;28;20049;-72
2021/03/23 02:07:41;;;;;;;19.20;15.77;;;;;;;7.58;59.12;101055.50;10352390;28;20076;-71
2021/03/23 02:12:43;;;;;;;21.77;16.85;;;;;;;7.90;58.94;101047.56;10347497;28;20037;-71
2021/03/23 02:17:44;;;;;;;18.27;14.73;;;;;;;7.95;58.65;101026.94;10348039;28;20053;-72
2021/03/23 02:22:48;;;;;;;20.30;16.42;;;;;;;7.94;58.42;101029.66;10349630;28;20529;-71
2021/03/23 02:27:53;;;;;;;22.40;16.23;;;;;;;7.81;58.68;101040.13;10348770;28;20049;-71
2021/03/23 02:32:54;;;;;;;22.25;16.65;;;;;;;7.99;58.15;101032.03;10348434;28;20066;-71
2021/03/23 02:38:03;;;;;;;19.13;16.38;;;;;;;8.16;57.57;101033.75;10346323;28;20058;-71
2021/03/23 02:43:04;;;;;;;19.85;16.33;;;;;;;8.24;56.95;101035.03;10349713;28;20463;-70
2021/03/23 02:48:05;;;;;;;18.73;14.65;;;;;;;8.26;57.17;101029.63;10346837;28;20056;-72
2021/03/23 02:53:07;;;;;;;18.10;13.90;;;;;;;8.37;56.62;101032.47;10348740;28;20111;-71
2021/03/23 02:58:08;;;;;;;18.83;15.25;;;;;;;8.34;56.84;101027.38;10348070;28;20061;-72
2021/03/23 03:03:10;;;;;;;18.75;15.15;;;;;;;8.21;56.87;101037.84;10350428;28;20057;-72
2021/03/23 03:08:26;;;;;;;18.00;15.05;;;;;;;7.93;57.02;101025.31;10348313;28;20053;-72
2021/03/23 03:13:28;;;;;;;17.15;15.25;;;;;;;8.04;57.00;101041.47;10341075;28;20057;-71
2021/03/23 03:18:29;;;;;;;21.38;15.98;;;;;;;7.89;57.65;101042.34;10338371;28;20192;-72
2021/03/23 03:23:31;;;;;;;19.48;15.15;;;;;;;7.94;57.42;101042.91;10339934;28;20050;-71
2021/03/23 03:28:35;;;;;;;19.60;15.23;;;;;;;8.14;56.57;101039.16;10344343;28;20041;-71
2021/03/23 03:33:36;;;;;;;19.30;15.43;;;;;;;8.16;56.55;101047.00;10347419;28;20078;-72
2021/03/23 03:38:49;;;;;;;18.70;15.63;;;;;;;8.18;57.18;101039.81;10350985;28;20267;-70
2021/03/23 03:43:50;;;;;;;19.98;16.25;;;;;;;8.24;56.47;101034.16;10347230;28;20131;-71
2021/03/23 03:48:52;;;;;;;20.10;15.68;;;;;;;8.23;57.04;101037.75;10346242;28;20085;-71
2021/03/23 03:53:53;;;;;;;19.90;15.43;;;;;;;8.24;56.89;101039.44;10350293;28;20077;-70
2021/03/23 03:58:55;;;;;;;18.73;15.57;;;;;;;8.28;56.56;101048.94;10355699;28;20109;-71
2021/03/23 04:03:56;;;;;;;17.02;14.40;;;;;;;8.27;55.84;101037.50;10357214;28;20057;-72
2021/03/23 04:09:12;;;;;;;19.33;15.45;;;;;;;8.19;55.81;101038.88;10354681;28;20125;-72
2021/03/23 04:14:13;;;;;;;15.63;13.98;;;;;;;8.09;56.34;101039.41;10356436;28;20045;-72
2021/03/23 04:19:14;;;;;;;19.08;16.13;;;;;;;8.14;55.42;101037.34;10356262;28;20053;-69
2021/03/23 04:24:15;;;;;;;16.13;14.43;;;;;;;8.23;55.06;101041.25;10353813;28;20038;-72
2021/03/23 04:29:16;;;;;;;16.70;14.70;;;;;;;8.25;54.39;101034.06;10352990;28;21994;-73
2021/03/23 04:34:18;;;;;;;18.90;14.35;;;;;;;8.18;53.83;101042.47;10350404;28;20138;-72
2021/03/23 04:39:36;;;;;;;18.75;16.35;;;;;;;8.13;54.05;101042.72;10352604;28;20045;-71
2021/03/23 04:44:37;;;;;;;17.25;15.43;;;;;;;8.18;53.93;101039.81;10350804;28;20057;-71
2021/03/23 04:49:37;;;;;;;18.25;15.98;;;;;;;8.28;53.77;101048.94;10346021;28;20508;-72
2021/03/23 04:54:38;;;;;;;20.88;16.35;;;;;;;8.22;53.37;101044.00;10352368;28;20496;-72
2021/03/23 04:59:39;;;;;;;22.48;18.60;;;;;;;8.25;53.39;101049.13;10349624;28;20058;-72
2021/03/23 05:04:40;;;;;;;20.83;16.55;;;;;;;8.27;53.06;101047.22;10343598;28;20073;-72
2021/03/23 05:09:56;;;;;;;20.23;16.80;;;;;;;8.16;53.20;101044.34;10340481;28;20061;-72
2021/03/23 05:14:57;;;;;;;21.65;18.65;;;;;;;7.97;53.48;101056.88;10343792;28;20497;-71
2021/03/23 05:19:58;;;;;;;22.77;19.10;;;;;;;8.11;53.11;101052.59;10350191;28;20050;-72
2021/03/23 05:24:59;;;;;;;21.48;18.50;;;;;;;8.11;53.60;101061.38;10344869;28;20042;-72
2021/03/23 05:30:00;;;;;;;20.60;17.48;;;;;;;8.06;53.83;101066.09;10354662;28;20095;-72
2021/03/23 05:35:00;;;;;;;20.63;17.50;;;;;;;7.64;54.84;101075.53;10354939;28;20061;-72
2021/03/23 05:40:32;;;;;;;22.42;17.88;;;;;;;7.48;55.51;101085.25;10352073;28;20045;-72
2021/03/23 05:45:40;;;;;;;23.45;17.67;;;;;;;7.57;56.02;101082.09;10347307;28;20050;-73
2021/03/23 05:50:45;;;;;;;22.00;17.73;;;;;;;7.83;55.09;101093.06;10349914;28;20061;-72
2021/03/23 05:55:47;;;;;;;21.35;17.48;;;;;;;7.70;56.24;101096.38;10347206;28;20053;-71
2021/03/23 06:00:56;;;;;;;19.98;16.45;;;;;;;7.63;55.78;101104.72;10349703;28;20057;-71
2021/03/23 06:06:16;;;;;;;22.20;18.60;;;;;;;7.84;55.60;101102.72;10311070;28;20038;-71
2021/03/23 06:11:17;;;;;;;27.05;19.35;;;;;;;7.54;56.90;101114.06;10317713;28;20054;-70
2021/03/23 06:16:54;;;;;;;25.73;19.80;;;;;;;7.89;56.08;101111.25;10309398;28;20061;-71
2021/03/23 06:22:27;;;;;;;24.00;18.05;;;;;;;8.04;55.43;101110.41;10252538;28;20318;-72
2021/03/23 06:27:28;;;;;;;22.42;18.65;;;;;;;7.96;56.22;101115.28;10274079;28;20049;-70
2021/03/23 06:32:40;;;;;;;28.95;19.15;;;;;;;8.20;55.42;101114.84;10309811;28;20473;-71
2021/03/23 06:37:43;;;;;;;24.35;18.38;;;;;;;8.21;55.15;101121.84;10315567;28;20069;-70
2021/03/23 06:42:47;;;;;;;27.23;20.10;;;;;;;7.94;55.63;101106.53;10314653;28;20193;-71
2021/03/23 06:47:49;;;;;;;25.75;19.95;;;;;;;8.11;55.86;101117.06;10309162;28;20045;-74
2021/03/23 06:53:15;;;;;;;25.08;20.10;;;;;;;8.30;55.17;101116.88;10311310;28;20049;-73
2021/03/23 06:58:24;;;;;;;22.13;18.80;;;;;;;8.41;54.88;101113.63;10305072;28;20176;-75
2021/03/23 07:03:26;;;;;;;28.13;21.33;;;;;;;8.25;54.99;101118.09;10303790;28;20137;-73
2021/03/23 07:08:27;;;;;;;26.02;20.17;;;;;;;8.08;55.58;101127.84;10310784;28;20058;-73
2021/03/23 07:13:28;;;;;;;26.88;21.92;;;;;;;8.28;55.28;101133.81;10301870;28;20065;-72
2021/03/23 07:18:40;;;;;;;28.48;21.30;;;;;;;8.25;55.08;101131.34;10305313;28;20146;-74
2021/03/23 07:23:44;;;;;;;30.55;22.63;;;;;;;8.42;54.64;101146.28;10303350;28;20835;-73
2021/03/23 07:28:45;;;;;;;27.65;22.20;;;;;;;8.43;54.42;101148.88;10313240;28;20043;-73
2021/03/23 07:34:03;;;;;;;32.50;22.92;;;;;;;8.46;54.42;101154.03;10313020;28;20092;-72
2021/03/23 07:39:29;;;;;;;30.75;24.83;;;;;;;8.58;53.99;101157.78;10310297;28;20129;-75
2021/03/23 07:44:42;;;;;;;31.67;23.95;;;;;;;8.58;52.86;101165.75;10309507;28;20530;-72
2021/03/23 07:49:49;;;;;;;31.35;23.33;;;;;;;8.07;54.38;101176.53;10319796;28;20143;-71
2021/03/23 07:54:50;;;;;;;28.80;24.02;;;;;;;8.32;52.98;101180.47;10312208;28;20050;-73
2021/03/23 08:00:23;;;;;;;29.80;23.23;;;;;;;8.32;52.94;101177.81;10311782;28;20070;-73
2021/03/23 08:05:39;;;;;;;28.48;23.05;;;;;;;8.32;53.10;101180.47;10343780;28;20105;-73
2021/03/23 08:11:13;;;;;;;30.23;22.33;;;;;;;8.56;53.08;101193.31;10316983;28;20053;-74
2021/03/23 08:16:33;;;;;;;30.60;22.30;;;;;;;8.48;52.92;101199.03;10314657;28;20070;-74
2021/03/23 08:22:07;;;;;;;27.67;21.52;;;;;;;8.40;53.27;101196.78;10315487;28;20042;-73
2021/03/23 08:27:27;;;;;;;34.83;25.65;;;;;;;8.63;52.89;101194.66;10309742;28;20069;-71
2021/03/23 08:32:47;;;;;;;30.05;21.33;;;;;;;8.68;52.40;101189.97;10310213;28;20050;-73
2021/03/23 08:38:33;;;;;;;26.77;20.38;;;;;;;8.24;53.47;101201.25;10311328;28;20127;-74
2021/03/23 08:43:38;;;;;;;;;;;;;;;8.43;53.49;101196.63;10279605;28;20120;-72
2021/03/23 08:48:46;;;;;;;26.48;21.17;;;;;;;8.59;52.38;101187.84;10316540;28;19925;-71
2021/03/23 08:53:55;;;;;;;28.08;21.92;;;;;;;8.67;52.37;101193.56;10311386;28;20044;-73
2021/03/23 08:58:56;;;;;;;27.35;20.13;;;;;;;8.83;52.06;101198.84;10308247;28;20543;-73
2021/03/23 09:04:03;;;;;;;28.05;20.88;;;;;;;8.96;51.82;101204.28;10317487;28;20526;-73
2021/03/23 09:09:33;;;;;;;27.35;20.30;;;;;;;8.54;52.47;101192.53;10316852;28;20050;-73
2021/03/23 09:15:08;;;;;;;27.00;22.63;;;;;;;8.44;52.89;101192.22;10310277;28;20061;-73
2021/03/23 09:20:32;;;;;;;25.85;21.85;;;;;;;8.61;52.49;101193.91;10310943;28;20485;-72
2021/03/23 09:25:44;;;;;;;30.20;23.38;;;;;;;8.71;52.32;101186.25;10340637;28;20140;-72
2021/03/23 09:30:45;;;;;;;29.73;22.38;;;;;;;9.02;50.99;101185.31;10310026;28;20551;-74
2021/03/23 09:36:08;;;;;;;27.58;21.95;;;;;;;9.27;50.52;101186.53;10318280;28;20058;-72
2021/03/23 09:41:36;;;;;;;26.70;21.38;;;;;;;9.37;50.25;101193.00;10314665;28;20129;-73
2021/03/23 09:46:47;;;;;;;28.55;23.17;;;;;;;9.09;50.15;101186.66;10355509;28;20033;-74
2021/03/23 09:52:01;;;;;;;30.13;23.73;;;;;;;9.09;50.15;101183.19;10323260;28;20057;-73
2021/03/23 09:57:36;;;;;;;30.77;23.20;;;;;;;9.09;49.73;101180.50;10307627;28;20054;-74
2021/03/23 10:02:50;;;;;;;30.80;23.35;;;;;;;9.23;50.02;101177.03;10290114;28;20515;-74
2021/03/23 10:07:54;;;;;;;26.88;22.25;;;;;;;9.57;49.02;101180.31;10315608;28;20054;-73
2021/03/23 10:12:57;;;;;;;28.42;22.58;;;;;;;9.85;48.34;101169.66;10307385;28;20124;-73
2021/03/23 10:18:20;;;;;;;25.58;21.17;;;;;;;9.77;48.18;101169.25;10309901;28;20107;-72
2021/03/23 10:23:24;;;;;;;27.52;21.92;;;;;;;9.65;47.82;101165.59;10308220;28;20049;-74
2021/03/23 10:28:30;;;;;;;25.45;21.40;;;;;;;9.35;48.26;101173.63;10307913;28;20046;-75
2021/03/23 10:33:34;;;;;;;26.17;20.05;;;;;;;9.37;48.67;101171.75;10310249;28;20081;-72
2021/03/23 10:38:40;;;;;;;24.15;20.25;;;;;;;9.47;48.57;101172.91;10303816;28;20168;-73
2021/03/23 10:43:41;;;;;;;27.67;22.42;;;;;;;9.57;48.00;101159.88;10315112;28;21060;-73
2021/03/23 10:48:44;;;;;;;27.58;21.75;;;;;;;9.44;47.76;101173.06;10312153;28;20062;-73
2021/03/23 10:54:02;;;;;;;27.67;22.73;;;;;;;9.63;48.14;101169.28;10311084;28;20466;-73
2021/03/23 10:59:04;;;;;;;25.52;20.95;;;;;;;9.55;47.25;101159.97;10316488;28;20094;-73
2021/03/23 11:04:17;;;;;;;27.35;22.05;;;;;;;9.51;47.95;101163.75;10308217;28;20438;-71
2021/03/23 11:09:19;;;;;;;25.77;21.73;;;;;;;9.41;48.44;101167.94;10305945;28;20049;-72
2021/03/23 11:14:31;;;;;;;26.80;21.25;;;;;;;9.55;48.25;101165.28;10311119;28;20465;-73
2021/03/23 11:19:37;;;;;;;26.58;20.52;;;;;;;9.35;48.09;101157.69;10307688;28;20290;-74
2021/03/23 11:24:39;;;;;;;26.27;22.02;;;;;;;9.58;47.87;101147.44;10306106;28;20133;-73
2021/03/23 11:29:39;;;;;;;23.98;21.00;;;;;;;9.72;47.49;101150.09;10307708;28;20457;-73
2021/03/23 11:34:40;;;;;;;24.20;20.77;;;;;;;9.95;47.10;101147.78;10305072;28;20069;-73
2021/03/23 11:39:41;;;;;;;22.48;18.73;;;;;;;9.60;47.50;101140.25;10306906;28;20070;-73
2021/03/23 11:44:56;;;;;;;22.02;18.30;;;;;;;9.65;48.17;101146.09;10306268;28;20568;-73
2021/03/23 11:50:04;;;;;;;23.25;19.27;;;;;;;9.79;47.85;101140.78;10306882;28;20042;-70
2021/03/23 11:55:12;;;;;;;25.20;20.52;;;;;;;10.18;46.94;101141.84;10303567;28;20157;-73
2021/03/23 12:00:14;;;;;;;20.48;17.77;;;;;;;10.12;46.57;101131.63;10310197;28;20062;-72
2021/03/23 12:05:16;;;;;;;21.25;18.80;;;;;;;10.22;47.35;101138.06;10303468;28;20057;-73
2021/03/23 12:10:33;;;;;;;22.17;18.30;;;;;;;9.93;46.87;101142.56;10305107;28;20077;-73
2021/03/23 12:15:40;;;;;;;23.73;17.48;;;;;;;9.64;47.84;101137.28;10312148;28;20064;-74
2021/03/23 12:20:42;;;;;;;22.42;18.27;;;;;;;10.03;47.71;101137.53;10314970;28;20301;-71
2021/03/23 12:25:44;;;;;;;21.38;17.80;;;;;;;10.50;46.21;101138.91;10318513;28;20113;-73
2021/03/23 12:30:45;;;;;;;19.08;16.48;;;;;;;10.69;46.19;101127.03;10313272;28;20051;-74
2021/03/23 12:35:46;;;;;;;23.67;18.83;;;;;;;10.99;45.55;101126.78;10319552;28;20076;-74
2021/03/23 12:40:47;;;;;;;24.67;20.35;;;;;;;11.25;45.03;101126.81;10320096;28;20054;-74
2021/03/23 12:45:49;;;;;;;21.75;18.45;;;;;;;11.23;44.48;101108.25;10348726;28;20126;-74
2021/03/23 12:50:52;;;;;;;22.08;18.52;;;;;;;11.55;44.50;101113.13;10341267;28;20108;-73
2021/03/23 12:55:54;;;;;;;19.33;15.90;;;;;;;11.73;43.88;101116.28;10323069;28;20073;-72
2021/03/23 13:00:55;;;;;;;17.60;15.70;;;;;;;11.77;43.34;101111.59;10313834;28;20143;-73
2021/03/23 13:05:57;;;;;;;20.70;15.65;;;;;;;11.96;42.73;101101.31;10315052;28;20092;-73
2021/03/23 13:11:02;;;;;;;17.27;14.45;;;;;;;12.21;42.41;101110.22;10318863;28;20200;-73
2021/03/23 13:16:03;;;;;;;16.27;13.57;;;;;;;11.96;42.81;101095.97;10318512;28;20152;-72
2021/03/23 13:21:06;;;;;;;15.38;13.60;;;;;;;12.36;42.28;101092.19;10311938;28;20148;-72
2021/03/23 13:26:07;;;;;;;14.85;13.30;;;;;;;12.48;41.49;101085.94;10309109;28;20149;-75
2021/03/23 13:31:08;;;;;;;15.23;13.65;;;;;;;12.37;42.26;101097.44;10311099;28;20200;-73
2021/03/23 13:36:25;;;;;;;15.27;13.18;;;;;;;12.12;42.81;101097.53;10317341;28;20108;-73
2021/03/23 13:41:26;;;;;;;15.32;13.55;;;;;;;11.96;43.26;101093.31;10310620;28;20049;-73
2021/03/23 13:46:39;;;;;;;13.93;12.43;;;;;;;11.95;43.38;101094.28;10318411;28;20118;-73
2021/03/23 13:51:40;;;;;;;14.68;12.98;;;;;;;12.07;43.47;101091.69;10314041;28;20460;-73
2021/03/23 13:56:41;;;;;;;13.65;11.82;;;;;;;12.00;42.65;101092.13;10313460;28;20059;-73
2021/03/23 14:01:42;;;;;;;12.80;10.55;;;;;;;11.77;42.97;101079.56;10314172;28;20049;-72
2021/03/23 14:06:45;;;;;;;12.05;9.80;;;;;;;11.64;43.89;101080.47;10311709;28;20586;-71
2021/03/23 14:11:46;;;;;;;13.30;11.80;;;;;;;11.45;43.59;101058.75;10308822;28;20539;-73
2021/03/23 14:16:47;;;;;;;14.20;11.65;;;;;;;11.58;43.42;101070.25;10308321;28;20049;-72
2021/03/23 14:21:49;;;;;;;12.43;11.23;;;;;;;11.70;43.22;101068.50;10309515;28;20538;-72
2021/03/23 14:26:50;;;;;;;14.73;12.68;;;;;;;11.55;43.60;101075.78;10319693;28;20049;-72
2021/03/23 14:31:51;;;;;;;13.60;12.00;;;;;;;11.62;44.56;101070.88;10313849;28;20380;-73
2021/03/23 14:36:53;;;;;;;14.68;12.15;;;;;;;11.62;44.29;101076.19;10309497;28;20050;-75
2021/03/23 14:41:54;;;;;;;14.48;12.43;;;;;;;11.60;43.97;101076.31;10342881;28;20057;-75
2021/03/23 14:47:36;;;;;;;14.88;12.50;;;;;;;11.44;44.31;101065.03;10330071;28;20046;-72
2021/03/23 14:52:41;;;;;;;12.68;10.88;;;;;;;11.72;43.44;101063.91;10307184;28;20050;-74
2021/03/23 14:57:44;;;;;;;13.48;11.27;;;;;;;11.80;42.94;101058.00;10305478;28;20373;-72
2021/03/23 15:02:46;;;;;;;12.05;10.90;;;;;;;11.85;42.82;101042.53;10333747;23;20057;-67
2021/03/23 15:07:47;;;;;;;14.35;12.13;;;;;;;11.99;43.07;101055.75;10336165;28;20125;-65
2021/03/23 15:12:48;;;;;;;12.55;10.60;;;;;;;11.82;43.35;101045.44;10305601;28;20126;-65
2021/03/23 15:17:50;;;;;;;12.77;11.48;;;;;;;11.81;43.20;101049.06;10294665;28;20125;-65
2021/03/23 15:22:51;;;;;;;15.43;11.07;;;;;;;11.66;43.48;101038.56;10295080;28;20394;-66
2021/03/23 15:27:53;;;;;;;14.25;11.75;;;;;;;11.64;43.61;101040.47;10296244;28;20057;-65
2021/03/23 15:32:54;;;;;;;12.95;11.55;;;;;;;11.75;43.32;101039.69;10296002;28;20066;-65
2021/03/23 15:37:57;;;;;;;13.43;11.27;;;;;;;11.75;43.42;101034.34;10295471;28;20096;-65
2021/03/23 15:42:58;;;;;;;14.18;12.23;;;;;;;11.59;43.27;101036.41;10291634;28;20105;-65
2021/03/23 15:47:59;;;;;;;15.88;12.18;;;;;;;11.56;43.60;101029.50;10301350;28;20206;-65
2021/03/23 15:53:01;;;;;;;16.35;11.63;;;;;;;11.63;43.70;101035.25;10308627;28;20042;-65
2021/03/23 15:58:04;;;;;;;13.10;11.77;;;;;;;11.54;43.76;101020.75;10299243;28;20054;-66
2021/03/23 16:03:05;;;;;;;16.65;12.52;;;;;;;11.63;43.66;101024.56;10298345;28;20436;-66
2021/03/23 16:08:14;;;;;;;14.77;12.68;;;;;;;11.71;43.52;101037.34;10297720;28;20189;-66
2021/03/23 16:13:15;;;;;;;15.98;11.77;;;;;;;11.73;43.90;101035.44;10295789;28;20093;-66
2021/03/23 16:18:24;;;;;;;15.07;12.38;;;;;;;11.56;43.95;101028.66;10301110;28;20069;-66
2021/03/23 16:23:33;;;;;;;15.00;13.50;;;;;;;11.56;44.37;101034.84;10297423;28;20069;-66
2021/03/23 16:28:41;;;;;;;14.43;12.60;;;;;;;11.48;44.28;101021.19;10299737;28;20518;-66
2021/03/23 16:33:42;;;;;;;16.13;13.43;;;;;;;11.53;44.09;101040.41;10300747;28;20042;-66
2021/03/23 16:38:43;;;;;;;19.02;13.02;;;;;;;11.44;43.97;101041.03;10303032;28;20114;-66
2021/03/23 16:43:45;;;;;;;15.57;12.10;;;;;;;11.18;44.37;101008.25;10301880;28;20497;-64
2021/03/23 16:48:57;;;;;;;20.42;13.02;;;;;;;11.32;44.72;101048.97;10301806;28;20046;-65
2021/03/23 16:53:58;;;;;;;15.20;12.50;;;;;;;11.23;44.96;101038.97;10295598;28;20043;-65
2021/03/23 16:58:59;;;;;;;15.13;12.90;;;;;;;11.22;45.08;101052.41;10296603;28;20136;-67
2021/03/23 17:04:00;;;;;;;15.07;12.50;;;;;;;11.17;44.98;101059.84;10297296;28;21544;-65
2021/03/23 17:09:02;;;;;;;15.68;12.65;;;;;;;11.09;45.19;101063.94;10299804;28;20048;-66
2021/03/23 17:14:05;;;;;;;14.75;11.90;;;;;;;11.08;45.23;101061.34;10298101;28;20133;-66
2021/03/23 17:19:15;;;;;;;14.75;12.65;;;;;;;10.78;45.39;101039.41;10299331;28;20046;-66
2021/03/23 17:24:16;;;;;;;15.88;11.98;;;;;;;10.83;45.72;101062.22;10299743;28;20050;-65
2021/03/23 17:29:17;;;;;;;14.65;12.43;;;;;;;10.65;45.88;101043.03;10299720;28;20073;-65
2021/03/23 17:34:18;;;;;;;18.15;13.50;;;;;;;10.73;46.25;101053.97;10300827;28;20050;-65
2021/03/23 17:39:19;;;;;;;15.18;13.60;;;;;;;10.71;46.04;101074.56;10296507;28;20580;-65
2021/03/23 17:44:20;;;;;;;18.35;13.57;;;;;;;10.38;46.40;101054.56;10297153;28;20058;-65
2021/03/23 17:49:22;;;;;;;19.38;13.35;;;;;;;10.34;47.07;101075.19;10294867;28;20039;-65
2021/03/23 17:54:23;;;;;;;15.68;13.40;;;;;;;10.24;47.11;101084.72;10298270;28;20054;-64
2021/03/23 17:59:24;;;;;;;13.25;11.90;;;;;;;10.01;48.13;101070.25;10298314;28;20364;-65
2021/03/23 18:04:25;;;;;;;14.38;12.18;;;;;;;10.06;47.77;101077.00;10301913;28;20050;-65
2021/03/23 18:09:26;;;;;;;15.45;12.73;;;;;;;9.95;48.11;101081.31;10308100;28;20531;-65
2021/03/23 18:14:27;;;;;;;14.98;12.05;;;;;;;9.81;48.22;101075.06;10303696;28;20488;-65
2021/03/23 18:19:28;;;;;;;16.35;12.63;;;;;;;9.73;48.85;101077.38;10314790;28;20046;-66
2021/03/23 18:24:29;;;;;;;20.67;14.02;;;;;;;9.77;49.10;101094.81;10307517;28;20047;-65
2021/03/23 18:29:32;;;;;;;16.55;14.63;;;;;;;9.66;49.09;101092.84;10291116;28;20046;-67
2021/03/23 18:34:36;;;;;;;19.33;15.30;;;;;;;9.54;50.07;101098.94;10311850;28;20050;-65
2021/03/23 18:39:38;;;;;;;18.15;15.27;;;;;;;9.42;50.23;101084.63;10314306;28;20121;-66
2021/03/23 18:44:39;;;;;;;33.42;24.95;;;;;;;9.47;50.62;101093.16;10305097;28;20460;-65
2021/03/23 18:49:41;;;;;;;20.25;16.17;;;;;;;9.37;50.48;101086.72;10278739;28;20078;-66
2021/03/23 18:54:42;;;;;;;19.90;15.35;;;;;;;9.31;50.65;101079.97;10319071;28;20054;-66
2021/03/23 18:59:43;;;;;;;17.63;15.50;;;;;;;9.33;51.27;101095.81;10307769;28;20088;-66
2021/03/23 19:04:44;;;;;;;18.65;15.65;;;;;;;9.30;51.25;101101.31;10293374;28;20588;-66
2021/03/23 19:09:45;;;;;;;16.63;14.25;;;;;;;9.14;51.32;101090.78;10294334;28;20088;-65
2021/03/23 19:14:46;;;;;;;27.35;16.50;;;;;;;9.13;51.51;101087.28;10294170;28;20050;-66
2021/03/23 19:19:47;;;;;;;16.90;13.52;;;;;;;9.05;51.42;101086.88;10293943;28;20065;-63
2021/03/23 19:24:48;;;;;;;21.20;16.13;;;;;;;9.08;51.83;101089.34;10297099;28;20046;-64
2021/03/23 19:29:49;;;;;;;18.15;16.33;;;;;;;9.06;52.03;101096.56;10301106;28;20105;-65
2021/03/23 19:34:50;;;;;;;16.20;14.18;;;;;;;9.00;51.95;101088.97;10298826;28;20050;-65
2021/03/23 19:39:52;;;;;;;18.02;14.52;;;;;;;8.96;52.07;101090.97;10306057;28;20500;-64
2021/03/23 19:44:53;;;;;;;18.67;13.52;;;;;;;8.87;52.37;101085.34;10301024;28;20080;-65
2021/03/23 19:49:54;;;;;;;17.08;13.73;;;;;;;8.77;52.65;101079.75;10301492;28;20133;-64
2021/03/23 19:54:54;;;;;;;15.48;12.85;;;;;;;8.70;52.68;101071.28;10298082;28;20062;-67
2021/03/23 19:59:55;;;;;;;16.33;13.73;;;;;;;8.69;53.18;101077.50;10298268;28;20044;-64
2021/03/23 20:04:56;;;;;;;18.20;14.05;;;;;;;8.73;52.54;101087.00;10301142;28;20168;-65
2021/03/23 20:09:57;;;;;;;17.40;13.70;;;;;;;8.75;52.88;101090.44;10301939;28;20161;-64
2021/03/23 20:14:59;;;;;;;18.85;15.05;;;;;;;8.64;53.11;101071.63;10300429;28;20516;-65
2021/03/23 20:20:00;;;;;;;18.98;14.77;;;;;;;8.66;53.49;101091.84;10306360;28;20065;-65
2021/03/23 20:25:01;;;;;;;18.58;14.82;;;;;;;8.61;53.77;101093.91;10318535;28;20529;-66
2021/03/23 20:30:03;;;;;;;21.08;15.05;;;;;;;8.59;53.60;101093.16;10302765;28;20062;-66
2021/03/23 20:35:06;;;;;;;17.92;15.23;;;;;;;8.46;53.89;101084.19;10302201;28;20119;-65
2021/03/23 20:40:07;;;;;;;17.55;14.75;;;;;;;8.51;53.92;101089.22;10303194;28;20153;-65
2021/03/23 20:45:11;;;;;;;24.52;16.85;;;;;;;8.41;53.99;101079.13;10299746;28;20054;-66
2021/03/23 20:50:20;;;;;;;22.42;16.90;;;;;;;8.38;54.68;101086.41;10300153;28;20116;-65
2021/03/23 20:55:24;;;;;;;21.58;16.20;;;;;;;8.36;54.79;101082.97;10298215;28;20144;-65
2021/03/23 21:00:31;;;;;;;19.95;16.67;;;;;;;8.34;54.19;101088.38;10296372;28;20575;-65
2021/03/23 21:05:36;;;;;;;22.38;16.83;;;;;;;8.35;54.23;101087.44;10313210;28;20504;-64
2021/03/23 21:10:41;;;;;;;22.42;16.17;;;;;;;8.25;53.94;101089.75;10294829;28;20594;-65
2021/03/23 21:15:42;;;;;;;21.10;15.15;;;;;;;8.14;54.26;101082.41;10302832;28;20046;-63
2021/03/23 21:20:45;;;;;;;19.30;15.20;;;;;;;8.16;54.77;101092.94;10301395;28;20065;-65
2021/03/23 21:25:46;;;;;;;23.15;15.52;;;;;;;8.19;54.48;101091.91;10296102;28;20054;-64
2021/03/23 21:30:53;;;;;;;20.67;16.10;;;;;;;8.13;55.09;101088.66;10296417;28;20057;-65
2021/03/23 21:35:55;;;;;;;19.83;15.95;;;;;;;8.05;55.18;101095.38;10300290;28;20050;-63
2021/03/23 21:40:58;;;;;;;17.67;15.38;;;;;;;8.09;55.29;101088.91;10307569;28;20133;-65
2021/03/23 21:46:00;;;;;;;20.55;16.20;;;;;;;8.06;54.88;101089.97;10307121;28;20085;-64
2021/03/23 21:51:01;;;;;;;21.88;18.00;;;;;;;7.99;55.66;101078.00;10305446;28;20125;-64
2021/03/23 21:56:06;;;;;;;22.80;17.52;;;;;;;7.97;55.35;101087.81;10306249;28;20149;-65
2021/03/23 22:01:17;;;;;;;;;;;;;;;7.92;55.94;101085.41;10307326;28;20053;-67
2021/03/23 22:06:18;;;;;;;24.00;18.17;;;;;;;7.78;56.11;101072.94;10308527;28;19929;-64
2021/03/23 22:11:20;;;;;;;24.35;17.23;;;;;;;7.83;56.05;101079.78;10301701;28;20469;-66
2021/03/23 22:16:22;;;;;;;22.25;17.30;;;;;;;7.61;56.21;101060.66;10310453;28;20291;-65
2021/03/23 22:21:23;;;;;;;24.55;18.52;;;;;;;7.72;56.71;101085.69;10305918;28;20061;-65
2021/03/23 22:26:25;;;;;;;22.60;17.20;;;;;;;7.49;56.65;101052.50;10293090;28;20080;-63
2021/03/23 22:31:26;;;;;;;24.10;18.67;;;;;;;7.60;57.08;101092.53;10304640;28;20107;-64
2021/03/23 22:36:27;;;;;;;24.20;18.25;;;;;;;7.54;56.96;101100.81;10309404;28;20054;-65
2021/03/23 22:41:28;;;;;;;21.77;17.52;;;;;;;7.41;57.23;101096.16;10309474;23;20042;-71
2021/03/23 22:46:29;;;;;;;23.63;19.00;;;;;;;7.33;57.77;101092.22;10320005;28;20046;-73
2021/03/23 22:51:31;;;;;;;24.02;18.50;;;;;;;7.44;57.56;101095.97;10292569;28;20247;-73
2021/03/23 22:56:32;;;;;;;24.95;18.65;;;;;;;7.31;57.64;101092.31;10264336;28;20050;-72
2021/03/23 23:01:33;;;;;;;24.60;19.30;;;;;;;7.22;58.18;101098.06;10261366;28;20077;-71